Аэропорт: Ужгород. Ужгород

ICAO: UKLU

METAR:
2021-07-28 13:00:00
UKLU 281300Z VRB02MPS 9999 NSC 34/19 Q1011 R10/090070 NOSIG
METAR:
2021-07-28 11:05:00
TAF UKLU 281105Z 2812/2821 12003MPS 9999 SCT040 TX32/2812Z TN25/2821Z TEMPO 2812/2818 SCT040CB